createdAt,value
2023-05-01T00:04:48.534Z,7.8
2023-05-01T00:24:52.107Z,7.6
2023-05-01T00:34:54.624Z,7.5
2023-05-01T00:44:56.445Z,7.3
2023-05-01T01:05:00.518Z,6.8
2023-05-01T01:15:02.506Z,6.9
2023-05-01T01:25:04.447Z,6.7
2023-05-01T01:35:06.724Z,6.5
2023-05-01T01:45:08.477Z,6.2
2023-05-01T01:55:10.459Z,6.2
2023-05-01T02:05:13.003Z,6.2
2023-05-01T02:15:15.027Z,6.2
2023-05-01T02:25:17.041Z,6.4
2023-05-01T02:35:18.881Z,6.5
2023-05-01T02:45:21.437Z,6.7
2023-05-01T02:55:23.515Z,6.8
2023-05-01T03:05:25.885Z,6.9
2023-05-01T03:15:27.712Z,7
2023-05-01T03:25:30.060Z,7
2023-05-01T03:35:31.886Z,6.9
2023-05-01T03:45:33.570Z,6.9
2023-05-01T03:55:35.727Z,7
2023-05-01T04:05:37.464Z,7.1
2023-05-01T04:15:39.829Z,7.1
2023-05-01T04:25:41.936Z,7.1
2023-05-01T04:35:44.321Z,7.1
2023-05-01T04:45:46.468Z,7.3
2023-05-01T04:55:48.332Z,7.3
2023-05-01T05:05:50.671Z,7.3
2023-05-01T05:15:52.499Z,7.2
2023-05-01T05:25:54.170Z,7.2
2023-05-01T05:35:56.499Z,7.4
2023-05-01T05:45:58.610Z,7.5
2023-05-01T05:56:00.276Z,7.7
2023-05-01T06:06:02.556Z,7.9
2023-05-01T06:16:04.683Z,8.4
2023-05-01T06:26:06.506Z,8.9
2023-05-01T06:36:08.792Z,9.6
2023-05-01T06:46:11.471Z,10
2023-05-01T06:56:13.244Z,10.5
2023-05-01T07:06:15.905Z,11
2023-05-01T07:16:18.315Z,11.5
2023-05-01T07:26:20.188Z,11.5
2023-05-01T07:36:22.370Z,11.8
2023-05-01T07:46:24.279Z,12.1
2023-05-01T07:56:26.180Z,12.3
2023-05-01T08:06:27.930Z,12.3
2023-05-01T08:16:30.545Z,12.6
2023-05-01T08:26:32.211Z,13.4
2023-05-01T08:36:34.301Z,13.7
2023-05-01T08:46:36.060Z,14.4
2023-05-01T08:56:37.805Z,15.2
2023-05-01T09:06:40.436Z,14.8
2023-05-01T09:16:42.186Z,15.1
2023-05-01T09:26:44.101Z,15.5
2023-05-01T09:36:45.950Z,15.5
2023-05-01T09:46:48.050Z,16.1
2023-05-01T09:56:50.558Z,16.7
2023-05-01T10:16:55.614Z,16.8
2023-05-01T10:26:57.744Z,17.2
2023-05-01T10:36:59.648Z,17.5
2023-05-01T10:47:01.773Z,17.6
2023-05-01T10:57:03.670Z,17.9
2023-05-01T11:07:06.270Z,18.6
2023-05-01T11:17:08.498Z,17.9
2023-05-01T11:27:10.764Z,18.1
2023-05-01T11:37:13.081Z,18.1
2023-05-01T11:47:14.792Z,18
2023-05-01T12:07:19.780Z,18.4
2023-05-01T12:17:22.033Z,18.4
2023-05-01T12:27:23.622Z,19.9
2023-05-01T12:37:25.290Z,19.7
2023-05-01T12:47:27.453Z,19.9
2023-05-01T12:57:29.783Z,19.7
2023-05-01T13:07:31.817Z,19.3
2023-05-01T13:17:33.848Z,18.6
2023-05-01T13:27:35.649Z,19.2
2023-05-01T13:37:37.748Z,19.1
2023-05-01T13:47:40.497Z,18.8
2023-05-01T13:57:41.888Z,18.9
2023-05-01T14:07:44.490Z,18.4
2023-05-01T14:17:48.033Z,18.5
2023-05-01T14:27:49.031Z,17.9
2023-05-01T14:37:50.886Z,17.8
2023-05-01T14:47:53.453Z,17.9
2023-05-01T14:57:55.645Z,17.8
2023-05-01T15:07:58.144Z,17.7
2023-05-01T15:18:00.825Z,17.5
2023-05-01T15:28:03.073Z,14.1
2023-05-01T15:38:04.714Z,12.3
2023-05-01T15:48:06.668Z,11.9
2023-05-01T15:58:09.229Z,12.6
2023-05-01T16:08:11.374Z,12.3
2023-05-01T16:18:13.669Z,12.1
2023-05-01T16:28:15.881Z,12.4
2023-05-01T16:38:18.246Z,12.5
2023-05-01T16:48:20.613Z,12.8
2023-05-01T16:58:22.630Z,13.2
2023-05-01T17:08:25.235Z,13.5
2023-05-01T17:18:27.783Z,13.6
2023-05-01T17:28:29.609Z,13.5
2023-05-01T17:38:32.256Z,13.2
2023-05-01T17:48:34.078Z,13.5
2023-05-01T17:58:35.907Z,13.4
2023-05-01T18:08:38.359Z,13.3
2023-05-01T18:18:40.805Z,13.2
2023-05-01T18:18:47.671Z,13.2
2023-05-01T18:28:49.647Z,13.2
2023-05-01T18:38:52.229Z,12.9
2023-05-01T18:48:54.745Z,12.6
2023-05-01T18:58:57.391Z,12.5
2023-05-01T19:08:59.839Z,12.2
2023-05-01T19:19:02.459Z,11.9
2023-05-01T19:29:04.206Z,11.9
2023-05-01T19:39:06.108Z,12.2
2023-05-01T19:49:08.654Z,12
2023-05-01T19:59:10.712Z,11.9
2023-05-01T20:19:14.863Z,12.2
2023-05-01T20:29:17.204Z,12.2
2023-05-01T20:39:19.184Z,12
2023-05-01T20:49:21.329Z,12
2023-05-01T20:59:23.044Z,12.1
2023-05-01T21:09:24.781Z,11.9
2023-05-01T21:19:26.772Z,11.8
2023-05-01T21:29:28.424Z,11.7
2023-05-01T21:39:30.487Z,11.7
2023-05-01T21:49:32.411Z,11.7
2023-05-01T21:59:34.724Z,11.6
2023-05-01T22:09:36.895Z,11.6
2023-05-01T22:19:38.870Z,11.6
2023-05-01T22:29:40.837Z,11.5
2023-05-01T22:39:42.437Z,11.4
2023-05-01T22:49:44.479Z,11.2
2023-05-01T23:09:48.012Z,11
2023-05-01T23:19:50.330Z,11
2023-05-01T23:29:52.487Z,11
2023-05-01T23:39:54.338Z,11
2023-05-01T23:49:56.576Z,10.9
